Time;durP1;ratioP1;P1;durP2;ratioP2;P2;SDS_P1;SDS_P2;PMS_P1;PMS_P2;Temp;Humidity;BMP_temperature;BMP_pressure;BME280_temperature;BME280_humidity;BME280_pressure;Samples;Min_cycle;Max_cycle;Signal;HPM_P1;HPM_P2
2023/10/23 00:02:06;;;;;;;3.60;1.90;;;14.10;97.30;;;;;;5073418;28;20461;-60
2023/10/23 00:04:33;;;;;;;5.60;1.83;;;14.10;97.30;;;;;;5073186;28;20463;-59
2023/10/23 00:07:00;;;;;;;4.27;2.20;;;14.00;97.30;;;;;;5073305;28;20503;-59
2023/10/23 00:09:28;;;;;;;4.40;2.17;;;14.00;97.60;;;;;;5073626;28;20444;-60
2023/10/23 00:11:55;;;;;;;4.20;1.93;;;14.00;97.70;;;;;;5073612;28;20465;-59
2023/10/23 00:14:21;;;;;;;5.47;2.20;;;14.00;97.90;;;;;;5073327;28;20986;-59
2023/10/23 00:16:48;;;;;;;4.27;1.63;;;13.90;98.00;;;;;;5073615;28;20467;-59
2023/10/23 00:19:15;;;;;;;4.63;1.73;;;14.00;98.10;;;;;;5073463;28;20452;-59
2023/10/23 00:21:42;;;;;;;2.53;1.53;;;14.00;98.10;;;;;;5073365;28;20469;-59
2023/10/23 00:24:09;;;;;;;3.60;1.90;;;13.90;98.10;;;;;;5073198;28;20458;-59
2023/10/23 00:26:37;;;;;;;1.93;1.73;;;13.90;98.10;;;;;;5073383;28;20853;-59
2023/10/23 00:29:04;;;;;;;3.30;1.70;;;13.90;98.00;;;;;;5072869;28;20448;-59
2023/10/23 00:31:31;;;;;;;6.37;1.80;;;13.90;97.90;;;;;;5072949;28;20834;-59
2023/10/23 00:33:57;;;;;;;3.10;1.40;;;13.80;97.80;;;;;;5072782;28;20943;-59
2023/10/23 00:36:24;;;;;;;3.07;1.87;;;13.80;97.90;;;;;;5072739;28;20518;-59
2023/10/23 00:38:51;;;;;;;4.50;1.63;;;13.80;98.00;;;;;;5073204;28;20786;-59
2023/10/23 00:41:17;;;;;;;4.40;1.70;;;13.80;98.10;;;;;;5073247;28;20461;-59
2023/10/23 00:43:45;;;;;;;3.63;1.50;;;13.80;98.10;;;;;;5073205;28;20448;-59
2023/10/23 00:46:15;;;;;;;3.10;1.30;;;13.80;98.10;;;;;;5073192;28;20433;-59
2023/10/23 00:48:43;;;;;;;4.87;1.90;;;13.80;98.00;;;;;;5073196;28;20857;-59
2023/10/23 00:51:13;;;;;;;2.80;1.53;;;13.80;97.90;;;;;;5073095;28;20486;-59
2023/10/23 00:53:41;;;;;;;2.60;1.63;;;13.80;97.80;;;;;;5073025;28;20490;-59
2023/10/23 00:56:09;;;;;;;18.63;3.27;;;13.80;97.80;;;;;;5073234;28;20487;-59
2023/10/23 00:58:39;;;;;;;5.60;2.30;;;13.80;97.80;;;;;;5073052;28;20440;-58
2023/10/23 01:01:09;;;;;;;4.70;1.70;;;13.80;97.80;;;;;;5073094;28;20468;-59
2023/10/23 01:03:36;;;;;;;3.30;1.73;;;13.80;97.80;;;;;;5074312;28;20464;-59
2023/10/23 01:06:03;;;;;;;4.70;2.10;;;13.70;97.80;;;;;;5076719;28;20436;-59
2023/10/23 01:08:29;;;;;;;3.90;1.90;;;13.70;97.90;;;;;;5076640;28;20946;-59
2023/10/23 01:10:56;;;;;;;2.60;1.67;;;13.70;98.00;;;;;;5076297;28;20464;-59
2023/10/23 01:13:23;;;;;;;6.17;1.80;;;13.70;98.00;;;;;;5076549;28;20452;-59
2023/10/23 01:15:50;;;;;;;8.47;2.07;;;13.70;98.20;;;;;;5076385;28;20476;-59
2023/10/23 01:18:19;;;;;;;6.77;2.63;;;13.60;98.20;;;;;;5076481;28;20499;-58
2023/10/23 01:20:45;;;;;;;5.83;1.83;;;13.60;98.20;;;;;;5076400;28;20457;-59
2023/10/23 01:23:12;;;;;;;3.57;1.83;;;13.60;98.30;;;;;;5076329;28;20989;-59
2023/10/23 01:25:40;;;;;;;4.83;1.53;;;13.60;98.40;;;;;;5076280;28;20493;-59
2023/10/23 01:28:07;;;;;;;7.90;2.17;;;13.60;98.30;;;;;;5076217;28;20818;-59
2023/10/23 01:30:34;;;;;;;4.07;2.40;;;13.60;98.10;;;;;;5076444;28;20456;-59
2023/10/23 01:33:01;;;;;;;9.07;1.90;;;13.60;98.00;;;;;;5076163;28;20471;-59
2023/10/23 01:35:28;;;;;;;3.67;1.60;;;13.60;97.70;;;;;;5076015;28;20476;-59
2023/10/23 01:37:54;;;;;;;8.50;2.17;;;13.60;97.50;;;;;;5075990;28;20841;-58
2023/10/23 01:40:21;;;;;;;2.80;1.80;;;13.50;97.30;;;;;;5075943;28;20468;-58
2023/10/23 01:42:49;;;;;;;4.40;1.77;;;13.50;97.20;;;;;;5075916;28;20444;-58
2023/10/23 01:45:18;;;;;;;4.07;2.33;;;13.50;97.10;;;;;;5075875;28;20498;-58
2023/10/23 01:47:45;;;;;;;3.80;1.50;;;13.50;97.00;;;;;;5075922;28;20453;-58
2023/10/23 01:50:12;;;;;;;6.30;2.00;;;13.40;97.10;;;;;;5075911;28;20468;-58
2023/10/23 01:52:38;;;;;;;7.50;2.20;;;13.40;97.30;;;;;;5075783;28;20875;-58
2023/10/23 01:55:06;;;;;;;5.77;2.00;;;13.40;97.30;;;;;;5075406;28;20507;-58
2023/10/23 01:57:33;;;;;;;4.00;1.97;;;13.40;97.40;;;;;;5075640;28;20444;-58
2023/10/23 02:00:04;;;;;;;19.33;2.90;;;13.30;97.30;;;;;;5075278;28;20444;-58
2023/10/23 02:02:31;;;;;;;6.53;2.47;;;13.30;97.40;;;;;;5075667;28;20429;-58
2023/10/23 02:04:58;;;;;;;4.83;2.17;;;13.30;97.50;;;;;;5075491;28;20836;-58
2023/10/23 02:07:26;;;;;;;5.57;2.03;;;13.30;97.50;;;;;;5075505;28;20444;-58
2023/10/23 02:09:52;;;;;;;4.23;2.17;;;13.20;97.60;;;;;;5075417;28;20498;-58
2023/10/23 02:12:19;;;;;;;5.53;2.00;;;13.20;97.70;;;;;;5075304;28;20468;-59
2023/10/23 02:14:50;;;;;;;5.30;1.83;;;13.20;97.90;;;;;;5074832;28;20449;-58
2023/10/23 02:17:18;;;;;;;7.30;2.50;;;13.20;98.10;;;;;;5075023;28;20994;-58
2023/10/23 02:19:45;;;;;;;6.07;2.07;;;13.20;98.20;;;;;;5075812;28;20451;-58
2023/10/23 02:22:12;;;;;;;6.27;2.43;;;13.20;98.50;;;;;;5075123;28;20487;-58
2023/10/23 02:24:38;;;;;;;5.60;2.37;;;13.10;98.50;;;;;;5075168;28;20487;-58
2023/10/23 02:27:05;;;;;;;4.63;1.60;;;13.10;98.80;;;;;;5075190;28;20441;-58
2023/10/23 02:29:32;;;;;;;5.93;1.90;;;13.00;98.90;;;;;;5075158;28;20437;-58
2023/10/23 02:31:58;;;;;;;9.43;2.03;;;13.00;99.00;;;;;;5074647;28;20847;-58
2023/10/23 02:34:26;;;;;;;5.77;2.23;;;13.00;99.00;;;;;;5074926;28;20821;-58
2023/10/23 02:36:53;;;;;;;5.50;1.93;;;13.00;99.00;;;;;;5074834;28;20480;-58
2023/10/23 02:39:20;;;;;;;6.60;1.97;;;13.00;98.80;;;;;;5074920;28;20894;-58
2023/10/23 02:41:46;;;;;;;8.33;2.00;;;13.00;98.50;;;;;;5074716;28;20465;-58
2023/10/23 02:44:14;;;;;;;4.47;1.83;;;13.00;98.20;;;;;;5074711;28;20880;-58
2023/10/23 02:46:40;;;;;;;4.00;1.60;;;12.90;97.90;;;;;;5074747;28;20437;-58
2023/10/23 02:49:07;;;;;;;4.53;1.70;;;12.90;97.60;;;;;;5074684;28;20552;-58
2023/10/23 02:51:36;;;;;;;4.37;1.90;;;12.90;97.40;;;;;;5074556;28;20491;-58
2023/10/23 02:54:03;;;;;;;2.83;1.60;;;12.90;97.20;;;;;;5074286;28;20931;-58
2023/10/23 02:56:31;;;;;;;2.67;1.70;;;12.80;97.00;;;;;;5074408;28;20565;-58
2023/10/23 02:58:58;;;;;;;2.93;1.50;;;12.80;96.80;;;;;;5074494;28;20441;-58
2023/10/23 03:01:25;;;;;;;8.17;1.60;;;12.80;96.70;;;;;;5074409;28;20468;-58
2023/10/23 03:03:52;;;;;;;2.80;1.60;;;12.80;96.60;;;;;;5073991;28;20456;-58
2023/10/23 03:06:19;;;;;;;3.83;2.00;;;12.80;96.60;;;;;;5074293;28;20444;-58
2023/10/23 03:08:47;;;;;;;4.10;1.90;;;12.70;96.60;;;;;;5074265;28;20432;-58
2023/10/23 03:11:13;;;;;;;4.80;2.37;;;12.70;97.50;;;;;;5074173;28;20460;-58
2023/10/23 03:13:40;;;;;;;2.60;2.10;;;12.70;98.20;;;;;;5074105;28;20452;-58
2023/10/23 03:16:07;;;;;;;2.93;2.03;;;12.60;98.60;;;;;;5073719;28;21070;-58
2023/10/23 03:18:33;;;;;;;4.63;3.40;;;12.50;99.10;;;;;;5073801;28;20931;-58
2023/10/23 03:21:00;;;;;;;5.50;2.80;;;12.50;99.30;;;;;;5073966;28;20461;-58
2023/10/23 03:23:28;;;;;;;5.10;3.67;;;12.50;99.60;;;;;;5074011;28;20449;-58
2023/10/23 03:25:56;;;;;;;9.47;3.23;;;12.40;99.70;;;;;;5072915;28;20441;-58
2023/10/23 03:28:23;;;;;;;4.37;2.60;;;12.40;99.80;;;;;;5073636;28;20441;-58
2023/10/23 03:30:50;;;;;;;3.97;2.60;;;12.40;99.90;;;;;;5073744;28;20465;-58
2023/10/23 03:33:17;;;;;;;3.40;2.17;;;12.40;99.90;;;;;;5073801;28;20441;-58
2023/10/23 03:35:44;;;;;;;6.33;3.10;;;12.40;99.90;;;;;;5073691;28;20484;-58
2023/10/23 03:38:11;;;;;;;6.90;2.90;;;12.40;99.90;;;;;;5073758;28;20441;-58
2023/10/23 03:40:37;;;;;;;7.43;3.20;;;12.30;99.90;;;;;;5073606;28;20457;-58
2023/10/23 03:43:05;;;;;;;3.80;2.43;;;12.30;99.90;;;;;;5073728;28;20436;-58
2023/10/23 03:45:36;;;;;;;5.07;3.23;;;12.30;99.90;;;;;;5073441;28;20927;-58
2023/10/23 03:48:02;;;;;;;7.03;3.00;;;12.30;99.90;;;;;;5073740;28;20421;-58
2023/10/23 03:50:29;;;;;;;4.70;2.70;;;12.30;99.90;;;;;;5073197;28;20845;-58
2023/10/23 03:52:56;;;;;;;7.83;2.50;;;12.40;99.90;;;;;;5073808;28;20809;-58
2023/10/23 03:55:22;;;;;;;6.53;3.00;;;12.30;99.90;;;;;;5073447;28;20467;-57
2023/10/23 03:57:49;;;;;;;5.80;2.03;;;12.40;99.90;;;;;;5073801;28;20471;-58
2023/10/23 04:00:17;;;;;;;3.87;2.30;;;12.30;99.80;;;;;;5073754;28;20448;-57
2023/10/23 04:02:44;;;;;;;4.30;2.33;;;12.40;99.70;;;;;;5073698;28;20445;-58
2023/10/23 04:05:11;;;;;;;5.13;1.83;;;12.40;99.60;;;;;;5074028;28;20428;-58
2023/10/23 04:07:37;;;;;;;2.60;1.83;;;12.40;99.40;;;;;;5073671;28;20448;-58
2023/10/23 04:10:07;;;;;;;5.90;2.67;;;12.40;99.40;;;;;;5073164;28;20448;-58
2023/10/23 04:12:34;;;;;;;4.83;1.77;;;12.40;99.30;;;;;;5073614;28;20483;-57
2023/10/23 04:15:00;;;;;;;3.30;1.80;;;12.50;99.10;;;;;;5073526;28;20440;-58
2023/10/23 04:17:28;;;;;;;4.73;2.20;;;12.50;98.90;;;;;;5073576;28;20484;-57
2023/10/23 04:19:55;;;;;;;4.80;2.30;;;12.40;98.60;;;;;;5073493;28;20444;-57
2023/10/23 04:22:22;;;;;;;3.97;1.90;;;12.40;98.40;;;;;;5073531;28;20465;-57
2023/10/23 04:24:48;;;;;;;5.87;1.80;;;12.40;98.10;;;;;;5073480;28;20443;-58
2023/10/23 04:27:15;;;;;;;2.10;1.90;;;12.40;97.90;;;;;;5073402;28;20452;-58
2023/10/23 04:29:42;;;;;;;2.90;1.73;;;12.40;97.80;;;;;;5073376;28;20466;-58
2023/10/23 04:32:08;;;;;;;2.80;2.00;;;12.40;97.60;;;;;;5073263;28;20471;-58
2023/10/23 04:34:36;;;;;;;6.97;2.47;;;12.40;97.50;;;;;;5073312;28;20451;-57
2023/10/23 04:37:04;;;;;;;3.77;1.90;;;12.30;97.30;;;;;;5074070;28;20480;-57
2023/10/23 04:39:31;;;;;;;11.90;2.30;;;12.30;97.20;;;;;;5077256;28;20525;-57
2023/10/23 04:41:58;;;;;;;3.27;1.93;;;12.30;97.10;;;;;;5077227;28;21048;-57
2023/10/23 04:44:25;;;;;;;3.50;2.10;;;12.30;97.10;;;;;;5077182;28;20467;-57
2023/10/23 04:46:51;;;;;;;3.53;1.73;;;12.20;97.00;;;;;;5077069;28;20436;-57
2023/10/23 04:49:18;;;;;;;3.40;2.13;;;12.20;96.90;;;;;;5077015;28;20445;-57
2023/10/23 04:51:46;;;;;;;3.63;2.33;;;12.20;96.90;;;;;;5076884;28;20468;-57
2023/10/23 04:54:13;;;;;;;4.60;2.47;;;12.20;96.90;;;;;;5076975;28;20452;-57
2023/10/23 04:56:41;;;;;;;5.10;2.50;;;12.20;96.90;;;;;;5077005;28;20480;-58
2023/10/23 04:59:08;;;;;;;4.70;2.60;;;12.20;96.90;;;;;;5076789;28;20449;-57
2023/10/23 05:01:35;;;;;;;7.93;2.30;;;12.10;96.90;;;;;;5077017;28;20476;-57
2023/10/23 05:04:02;;;;;;;6.77;2.20;;;12.10;96.90;;;;;;5076426;28;20460;-57
2023/10/23 05:06:29;;;;;;;2.27;1.90;;;12.10;96.90;;;;;;5076698;28;20449;-57
2023/10/23 05:08:57;;;;;;;4.13;2.10;;;12.10;97.20;;;;;;5076582;28;20448;-57
2023/10/23 05:11:24;;;;;;;3.50;2.70;;;12.10;97.20;;;;;;5076195;28;20847;-57
2023/10/23 05:13:50;;;;;;;5.13;2.53;;;12.10;97.40;;;;;;5076534;28;20466;-57
2023/10/23 05:16:17;;;;;;;4.63;2.40;;;12.10;97.50;;;;;;5076438;28;20483;-57
2023/10/23 05:18:44;;;;;;;2.87;2.60;;;12.10;97.50;;;;;;5076470;28;20444;-57
2023/10/23 05:21:11;;;;;;;10.77;3.20;;;12.10;97.40;;;;;;5076297;28;20908;-57
2023/10/23 05:23:39;;;;;;;3.90;2.37;;;12.00;97.60;;;;;;5076580;28;20436;-57
2023/10/23 05:26:07;;;;;;;5.70;2.50;;;12.00;97.10;;;;;;5076224;28;20540;-57
2023/10/23 05:28:34;;;;;;;7.33;2.67;;;12.00;97.10;;;;;;5076240;28;20449;-57
2023/10/23 05:31:00;;;;;;;4.47;2.10;;;12.00;97.00;;;;;;5076174;28;20456;-57
2023/10/23 05:33:27;;;;;;;6.97;2.50;;;12.00;96.90;;;;;;5076190;28;20818;-57
2023/10/23 05:36:03;;;;;;;8.50;2.17;;;11.90;96.80;;;;;;5076059;28;20460;-57
2023/10/23 05:38:30;;;;;;;5.03;3.17;;;11.90;96.60;;;;;;5076077;28;20428;-57
2023/10/23 05:40:57;;;;;;;3.27;2.90;;;11.90;96.50;;;;;;5075697;28;20468;-57
2023/10/23 05:43:26;;;;;;;3.70;2.77;;;11.90;96.50;;;;;;5075738;28;20954;-57
2023/10/23 05:45:53;;;;;;;5.63;2.30;;;11.80;96.40;;;;;;5075836;28;20484;-57
2023/10/23 05:48:19;;;;;;;4.00;2.97;;;11.80;96.30;;;;;;5075110;28;20834;-57
2023/10/23 05:50:46;;;;;;;2.33;2.13;;;11.80;96.20;;;;;;5075192;28;20469;-57
2023/10/23 05:53:13;;;;;;;4.50;3.33;;;11.70;96.10;;;;;;5075878;28;20448;-57
2023/10/23 05:55:39;;;;;;;3.77;3.00;;;11.70;96.10;;;;;;5075869;28;20445;-57
2023/10/23 05:58:06;;;;;;;7.50;2.90;;;11.70;96.00;;;;;;5076182;28;20503;-57
2023/10/23 06:00:34;;;;;;;3.47;2.83;;;11.70;96.10;;;;;;5075633;28;20465;-57
2023/10/23 06:03:01;;;;;;;3.77;2.60;;;11.60;96.00;;;;;;5075106;28;20946;-57
2023/10/23 06:05:27;;;;;;;5.20;3.00;;;11.60;96.30;;;;;;5075672;28;20448;-57
2023/10/23 06:07:54;;;;;;;4.77;2.70;;;11.50;95.90;;;;;;5075594;28;20875;-57
2023/10/23 06:10:21;;;;;;;5.50;3.03;;;11.50;96.00;;;;;;5075452;28;20873;-57
2023/10/23 06:12:47;;;;;;;5.40;3.37;;;11.50;96.00;;;;;;5075614;28;20445;-57
2023/10/23 06:15:14;;;;;;;4.80;3.27;;;11.40;96.00;;;;;;5075349;28;20447;-57
2023/10/23 06:17:42;;;;;;;5.93;3.17;;;11.40;96.00;;;;;;5075336;28;20488;-57
2023/10/23 06:20:10;;;;;;;3.53;2.50;;;11.40;96.00;;;;;;5074943;28;20444;-57
2023/10/23 06:22:37;;;;;;;4.67;2.70;;;11.40;96.00;;;;;;5075275;28;20498;-57
2023/10/23 06:25:04;;;;;;;3.37;2.50;;;11.40;96.00;;;;;;5075126;28;20449;-57
2023/10/23 06:27:31;;;;;;;5.07;3.10;;;11.40;96.40;;;;;;5075231;28;20476;-57
2023/10/23 06:29:57;;;;;;;8.40;3.50;;;11.40;96.10;;;;;;5074830;28;21041;-57
2023/10/23 06:32:24;;;;;;;5.70;3.40;;;11.40;96.10;;;;;;5074877;28;20440;-57
2023/10/23 06:34:53;;;;;;;7.43;3.40;;;11.40;96.10;;;;;;5075059;28;20437;-57
2023/10/23 06:37:20;;;;;;;3.37;3.07;;;11.40;96.00;;;;;;5074977;28;20529;-57
2023/10/23 06:39:46;;;;;;;5.63;4.17;;;11.40;96.10;;;;;;5074998;28;20475;-57
2023/10/23 06:42:13;;;;;;;5.50;3.90;;;11.40;96.10;;;;;;5074714;28;20981;-57
2023/10/23 06:44:40;;;;;;;5.53;3.40;;;11.40;96.20;;;;;;5074977;28;20527;-57
2023/10/23 06:47:07;;;;;;;6.70;3.77;;;11.40;96.20;;;;;;5074919;28;20445;-57
2023/10/23 06:49:33;;;;;;;7.30;3.80;;;11.40;96.20;;;;;;5074766;28;20524;-57
2023/10/23 06:52:02;;;;;;;6.37;3.80;;;11.40;96.20;;;;;;5074269;28;20836;-57
2023/10/23 06:54:30;;;;;;;5.77;4.10;;;11.40;96.30;;;;;;5074653;28;20476;-57
2023/10/23 06:56:57;;;;;;;8.60;4.50;;;11.40;96.40;;;;;;5074070;28;20476;-57
2023/10/23 06:59:23;;;;;;;8.83;4.40;;;11.50;96.60;;;;;;5074532;28;20445;-57
2023/10/23 07:01:50;;;;;;;6.37;3.70;;;11.50;96.80;;;;;;5074356;28;20465;-57
2023/10/23 07:04:17;;;;;;;8.60;3.43;;;11.50;97.60;;;;;;5074238;28;20810;-57
2023/10/23 07:06:43;;;;;;;10.47;3.97;;;11.50;97.90;;;;;;5074453;28;20803;-58
2023/10/23 07:09:11;;;;;;;10.37;4.37;;;11.50;98.10;;;;;;5074055;28;20853;-57
2023/10/23 07:11:38;;;;;;;5.03;4.20;;;11.60;98.40;;;;;;5074206;28;20472;-57
2023/10/23 07:14:05;;;;;;;8.87;4.33;;;11.60;98.70;;;;;;5074236;28;20487;-58
2023/10/23 07:16:32;;;;;;;8.43;4.40;;;11.60;98.90;;;;;;5074382;28;20492;-58
2023/10/23 07:18:58;;;;;;;6.70;4.53;;;11.60;99.10;;;;;;5074413;28;20456;-58
2023/10/23 07:21:27;;;;;;;6.13;4.47;;;11.60;99.30;;;;;;5074240;28;20464;-58
2023/10/23 07:23:53;;;;;;;5.97;4.53;;;11.70;99.50;;;;;;5073862;28;20971;-58
2023/10/23 07:26:21;;;;;;;8.87;4.13;;;11.70;99.60;;;;;;5074240;28;20453;-58
2023/10/23 07:28:48;;;;;;;5.13;4.00;;;11.70;99.70;;;;;;5074255;28;20450;-58
2023/10/23 07:31:16;;;;;;;12.57;4.67;;;11.80;99.90;;;;;;5074015;28;20471;-58
2023/10/23 07:33:42;;;;;;;10.77;4.53;;;11.80;99.90;;;;;;5074014;28;20449;-58
2023/10/23 07:36:11;;;;;;;7.13;4.03;;;11.90;99.90;;;;;;5073929;28;20455;-58
2023/10/23 07:38:40;;;;;;;10.13;5.17;;;11.90;99.90;;;;;;5073795;28;20567;-58
2023/10/23 07:41:07;;;;;;;8.10;4.67;;;11.90;99.90;;;;;;5073745;28;20469;-58
2023/10/23 07:43:35;;;;;;;8.23;4.10;;;12.00;99.90;;;;;;5073678;28;20439;-58
2023/10/23 07:46:05;;;;;;;11.33;5.20;;;12.00;99.90;;;;;;5073366;28;20977;-58
2023/10/23 07:48:32;;;;;;;8.37;4.10;;;12.10;99.90;;;;;;5074319;28;20421;-58
2023/10/23 07:51:00;;;;;;;11.93;5.10;;;12.20;99.90;;;;;;5073760;28;20468;-58
2023/10/23 07:53:26;;;;;;;5.90;4.33;;;12.20;99.90;;;;;;5073721;28;20444;-58
2023/10/23 07:55:53;;;;;;;9.57;4.40;;;12.30;99.90;;;;;;5073691;28;20448;-58
2023/10/23 07:58:20;;;;;;;7.60;3.93;;;12.40;99.90;;;;;;5073527;28;20480;-58
2023/10/23 08:00:51;;;;;;;6.37;4.30;;;12.50;99.90;;;;;;5073710;28;20460;-58
2023/10/23 08:03:18;;;;;;;6.50;3.77;;;12.60;99.90;;;;;;5073507;28;20814;-58
2023/10/23 08:05:44;;;;;;;6.50;3.67;;;12.70;99.90;;;;;;5073484;28;20445;-58
2023/10/23 08:08:11;;;;;;;9.03;4.37;;;12.70;99.90;;;;;;5073606;28;20440;-58
2023/10/23 08:10:38;;;;;;;9.23;4.63;;;12.80;99.80;;;;;;5073162;28;21006;-58
2023/10/23 08:13:04;;;;;;;8.60;5.30;;;12.90;99.80;;;;;;5072977;28;20440;-58
2023/10/23 08:15:31;;;;;;;9.13;4.93;;;13.00;99.80;;;;;;5073358;28;20479;-58
2023/10/23 08:18:00;;;;;;;9.30;5.10;;;13.10;99.80;;;;;;5073330;28;20476;-59
2023/10/23 08:20:27;;;;;;;8.87;4.90;;;13.10;99.60;;;;;;5073619;28;20472;-58
2023/10/23 08:22:54;;;;;;;9.20;4.53;;;13.20;99.80;;;;;;5073374;28;20452;-59
2023/10/23 08:25:21;;;;;;;10.70;4.70;;;13.30;99.30;;;;;;5073316;28;20445;-59
2023/10/23 08:27:48;;;;;;;6.30;4.90;;;13.40;99.20;;;;;;5073292;28;20491;-58
2023/10/23 08:30:14;;;;;;;9.57;4.93;;;13.50;99.00;;;;;;5072827;28;21008;-58
2023/10/23 08:32:41;;;;;;;13.53;5.17;;;13.50;98.80;;;;;;5073195;28;20455;-58
2023/10/23 08:35:09;;;;;;;7.57;4.60;;;13.60;98.60;;;;;;5073185;28;20441;-58
2023/10/23 08:37:36;;;;;;;7.63;5.03;;;13.70;98.50;;;;;;5073142;28;20504;-59
2023/10/23 08:40:06;;;;;;;5.83;4.53;;;13.90;98.40;;;;;;5073306;28;20470;-59
2023/10/23 08:42:33;;;;;;;7.63;4.60;;;13.90;98.20;;;;;;5073143;28;20484;-59
2023/10/23 08:45:00;;;;;;;8.97;4.30;;;14.10;98.20;;;;;;5072797;28;20926;-59
2023/10/23 08:47:27;;;;;;;6.60;4.40;;;14.20;97.90;;;;;;5073080;28;20448;-59
2023/10/23 08:49:56;;;;;;;5.60;4.60;;;14.30;97.70;;;;;;5073320;28;20445;-59
2023/10/23 08:52:26;;;;;;;9.07;4.93;;;14.40;97.50;;;;;;5073100;28;20455;-59
2023/10/23 08:54:54;;;;;;;6.40;4.37;;;14.60;97.30;;;;;;5072718;28;20778;-59
2023/10/23 08:57:21;;;;;;;10.27;5.80;;;14.60;96.90;;;;;;5072922;28;20485;-59
2023/10/23 08:59:48;;;;;;;7.77;5.67;;;14.70;96.70;;;;;;5072960;28;20444;-59
2023/10/23 09:02:15;;;;;;;7.30;6.07;;;14.90;96.60;;;;;;5072811;28;20464;-59
2023/10/23 09:04:42;;;;;;;8.60;6.30;;;15.00;96.50;;;;;;5072547;28;20464;-59
2023/10/23 09:07:09;;;;;;;24.43;7.87;;;15.00;96.20;;;;;;5072832;28;20466;-59
2023/10/23 09:09:37;;;;;;;9.40;6.57;;;15.10;96.00;;;;;;5072819;28;20437;-59
2023/10/23 09:12:04;;;;;;;6.80;6.17;;;15.20;95.70;;;;;;5072469;28;20948;-59
2023/10/23 09:14:32;;;;;;;6.90;6.20;;;15.20;95.50;;;;;;5073026;28;20494;-59
2023/10/23 09:17:00;;;;;;;9.33;6.53;;;15.20;95.70;;;;;;5072669;28;20448;-59
2023/10/23 09:19:32;;;;;;;8.67;6.50;;;15.30;95.30;;;;;;5072393;28;20923;-59
2023/10/23 09:21:59;;;;;;;11.83;8.77;;;15.40;95.10;;;;;;5072644;28;20468;-59
2023/10/23 09:24:26;;;;;;;7.83;6.83;;;15.50;94.90;;;;;;5074820;28;20450;-59
2023/10/23 09:26:54;;;;;;;8.43;7.63;;;15.60;94.80;;;;;;5076307;28;20442;-59
2023/10/23 09:29:22;;;;;;;9.87;8.87;;;15.60;94.60;;;;;;5076040;28;20444;-59
2023/10/23 09:31:50;;;;;;;9.00;8.30;;;15.70;94.60;;;;;;5075873;28;20836;-59
2023/10/23 09:34:18;;;;;;;10.00;7.57;;;15.80;94.40;;;;;;5076149;28;20494;-59
2023/10/23 09:36:45;;;;;;;11.10;9.03;;;15.80;94.30;;;;;;5076089;28;20445;-59
2023/10/23 09:39:11;;;;;;;10.20;8.40;;;15.90;94.20;;;;;;5076017;28;20476;-59
2023/10/23 09:41:38;;;;;;;10.70;9.60;;;15.90;94.10;;;;;;5075936;28;20461;-59
2023/10/23 09:44:08;;;;;;;10.60;9.70;;;16.00;94.00;;;;;;5075657;28;20943;-59
2023/10/23 09:46:35;;;;;;;9.73;8.83;;;16.00;93.80;;;;;;5075918;28;20440;-59
2023/10/23 09:49:03;;;;;;;11.13;10.07;;;16.10;93.70;;;;;;5075652;28;20439;-59
2023/10/23 09:51:36;;;;;;;10.77;9.73;;;16.10;93.60;;;;;;5075770;28;20464;-59
2023/10/23 09:54:09;;;;;;;11.00;9.77;;;16.20;93.60;;;;;;5075552;28;20802;-59
2023/10/23 09:56:37;;;;;;;12.43;8.97;;;16.30;93.50;;;;;;5076026;28;20802;-59
2023/10/23 09:59:08;;;;;;;10.47;9.17;;;16.30;93.30;;;;;;5075570;28;20483;-59
2023/10/23 10:01:37;;;;;;;10.20;9.20;;;16.40;93.20;;;;;;5075828;28;20456;-59
2023/10/23 10:04:13;;;;;;;8.23;7.43;;;16.60;93.10;;;;;;5075504;28;20456;-59
2023/10/23 10:06:42;;;;;;;6.97;6.33;;;16.70;92.90;;;;;;5075614;28;20770;-59
2023/10/23 10:09:13;;;;;;;7.87;7.13;;;16.70;92.60;;;;;;5075639;28;20441;-59
2023/10/23 10:11:42;;;;;;;10.43;8.23;;;16.70;92.20;;;;;;5075121;28;20986;-59
2023/10/23 10:14:11;;;;;;;8.77;7.83;;;16.70;91.90;;;;;;5075392;28;20441;-59
2023/10/23 10:16:39;;;;;;;9.90;9.10;;;16.70;91.90;;;;;;5075062;28;20969;-59
2023/10/23 10:19:06;;;;;;;9.83;9.03;;;16.60;91.90;;;;;;5075248;28;20481;-60
2023/10/23 10:21:41;;;;;;;8.60;7.73;;;16.70;92.00;;;;;;5075290;28;20471;-59
2023/10/23 10:24:10;;;;;;;7.80;7.10;;;16.60;92.10;;;;;;5075279;28;20428;-59
2023/10/23 10:26:37;;;;;;;7.23;6.00;;;16.60;92.10;;;;;;5075253;28;20852;-59
2023/10/23 10:29:04;;;;;;;8.73;7.90;;;16.70;92.20;;;;;;5075233;28;20433;-59
2023/10/23 10:32:05;;;;;;;7.87;7.07;;;16.60;92.20;;;;;;5075223;28;20457;-59
2023/10/23 10:34:33;;;;;;;6.67;6.13;;;16.60;92.20;;;;;;5074986;28;20483;-60
2023/10/23 10:37:00;;;;;;;9.37;6.20;;;16.50;92.20;;;;;;5075108;28;20464;-59
2023/10/23 10:40:03;;;;;;;6.47;5.77;;;16.50;92.00;;;;;;5075029;28;20679;-59
2023/10/23 10:42:30;;;;;;;10.33;5.90;;;16.50;92.00;;;;;;5075062;28;20439;-59
2023/10/23 10:44:59;;;;;;;8.13;6.03;;;16.50;92.00;;;;;;5075115;28;20445;-59
2023/10/23 10:47:37;;;;;;;6.07;5.57;;;16.60;92.00;;;;;;5074507;28;20982;-59
2023/10/23 10:50:05;;;;;;;6.70;6.10;;;16.60;91.90;;;;;;5074775;28;20421;-59
2023/10/23 10:52:34;;;;;;;8.03;7.17;;;16.60;91.90;;;;;;5074749;28;20475;-59
2023/10/23 10:55:01;;;;;;;6.93;5.77;;;16.70;91.90;;;;;;5074562;28;20441;-59
2023/10/23 10:57:28;;;;;;;6.43;5.60;;;16.70;91.70;;;;;;5074441;28;20480;-59
2023/10/23 10:59:56;;;;;;;5.20;4.80;;;16.70;91.70;;;;;;5074599;28;20445;-59
2023/10/23 11:02:23;;;;;;;5.07;4.53;;;16.70;91.60;;;;;;5074521;28;20456;-59
2023/10/23 11:04:51;;;;;;;4.90;4.20;;;16.80;91.50;;;;;;5074107;28;20982;-59
2023/10/23 11:07:22;;;;;;;9.00;4.70;;;16.90;91.50;;;;;;5074365;28;20440;-59
2023/10/23 11:09:49;;;;;;;6.17;4.97;;;16.90;91.30;;;;;;5074382;28;20429;-60
2023/10/23 11:12:17;;;;;;;5.80;5.20;;;17.00;91.20;;;;;;5074351;28;20461;-59
2023/10/23 11:14:44;;;;;;;5.30;4.80;;;17.10;90.60;;;;;;5073962;28;20930;-60
2023/10/23 11:17:10;;;;;;;6.10;5.10;;;17.10;90.70;;;;;;5073899;28;20456;-59
2023/10/23 11:19:37;;;;;;;5.47;4.97;;;17.20;90.70;;;;;;5074129;28;20476;-59
2023/10/23 11:22:09;;;;;;;5.30;4.17;;;17.30;90.70;;;;;;5074035;28;20483;-59
2023/10/23 11:24:36;;;;;;;6.50;5.10;;;17.40;90.60;;;;;;5073715;28;20878;-59
2023/10/23 11:27:04;;;;;;;4.97;4.50;;;17.50;90.40;;;;;;5074561;28;20444;-59
2023/10/23 11:29:38;;;;;;;5.40;4.10;;;17.60;90.10;;;;;;5073858;28;20488;-59
2023/10/23 11:32:06;;;;;;;4.77;4.43;;;17.60;89.60;;;;;;5073925;28;20488;-60
2023/10/23 11:34:32;;;;;;;5.00;4.50;;;17.60;89.20;;;;;;5073837;28;20460;-59
2023/10/23 11:37:01;;;;;;;4.80;4.33;;;17.70;89.10;;;;;;5073923;28;20825;-59
2023/10/23 11:39:30;;;;;;;4.27;3.87;;;17.70;89.00;;;;;;5073412;28;20850;-59
2023/10/23 11:41:58;;;;;;;5.97;4.97;;;17.70;89.20;;;;;;5073840;28;20460;-59
2023/10/23 11:44:25;;;;;;;4.20;3.80;;;17.70;88.70;;;;;;5073879;28;20463;-59
2023/10/23 11:46:53;;;;;;;4.30;3.63;;;17.80;88.70;;;;;;5073090;28;20448;-59
2023/10/23 11:49:20;;;;;;;4.53;3.80;;;17.80;88.60;;;;;;5073539;28;20436;-60
2023/10/23 11:51:47;;;;;;;3.30;3.10;;;17.80;88.60;;;;;;5073488;28;21009;-59
2023/10/23 11:54:13;;;;;;;5.13;3.10;;;17.90;88.40;;;;;;5073563;28;20448;-59
2023/10/23 11:56:43;;;;;;;3.27;2.80;;;17.90;88.10;;;;;;5073552;28;20441;-59
2023/10/23 11:59:15;;;;;;;3.97;3.00;;;17.90;87.90;;;;;;5074146;28;20468;-59
2023/10/23 12:01:42;;;;;;;3.60;3.23;;;17.90;87.40;;;;;;5073519;28;20456;-59
2023/10/23 12:04:09;;;;;;;6.37;2.43;;;17.90;87.30;;;;;;5073326;28;20483;-59
2023/10/23 12:06:37;;;;;;;4.17;2.70;;;17.90;87.70;;;;;;5073523;28;20443;-60
2023/10/23 12:09:04;;;;;;;3.23;2.93;;;17.90;87.90;;;;;;5073492;28;20428;-60
2023/10/23 12:11:32;;;;;;;4.30;3.40;;;17.90;87.80;;;;;;5073351;28;20497;-59
2023/10/23 12:14:01;;;;;;;3.67;2.87;;;17.90;87.70;;;;;;5073468;28;20459;-59
2023/10/23 12:16:28;;;;;;;3.77;3.43;;;17.90;87.80;;;;;;5073565;28;20445;-59
2023/10/23 12:18:55;;;;;;;2.87;2.67;;;17.90;87.90;;;;;;5073230;28;20496;-59
2023/10/23 12:21:21;;;;;;;4.23;2.50;;;18.00;88.20;;;;;;5072910;28;20974;-59
2023/10/23 12:23:49;;;;;;;3.33;2.73;;;18.00;88.00;;;;;;5073273;28;20440;-59
2023/10/23 12:26:18;;;;;;;4.83;3.03;;;18.00;87.70;;;;;;5073492;28;20454;-59
2023/10/23 12:28:44;;;;;;;3.67;3.03;;;18.10;87.40;;;;;;5073239;28;20448;-59
2023/10/23 12:31:12;;;;;;;4.33;2.27;;;18.10;87.10;;;;;;5073140;28;20467;-59
2023/10/23 12:33:39;;;;;;;4.03;2.47;;;18.10;86.80;;;;;;5073137;28;20452;-59
2023/10/23 12:36:06;;;;;;;3.83;2.37;;;18.20;86.70;;;;;;5073991;28;20445;-59
2023/10/23 12:38:34;;;;;;;4.20;2.47;;;18.20;86.50;;;;;;5073048;28;20530;-59
2023/10/23 12:41:01;;;;;;;5.20;2.90;;;18.30;86.50;;;;;;5073023;28;20472;-59
2023/10/23 12:43:28;;;;;;;3.03;2.73;;;18.40;86.30;;;;;;5073077;28;20448;-59
2023/10/23 12:45:54;;;;;;;3.80;2.67;;;18.50;86.00;;;;;;5073091;28;20448;-59
2023/10/23 12:48:22;;;;;;;3.90;2.17;;;18.60;85.40;;;;;;5073104;28;20463;-59